createdAt,value
2018-09-29T00:00:35.223Z,5.67
2018-09-29T00:03:04.220Z,6.17
2018-09-29T00:05:33.050Z,5.37
2018-09-29T00:08:02.906Z,4.70
2018-09-29T00:10:31.937Z,4.90
2018-09-29T00:13:01.071Z,4.87
2018-09-29T00:15:29.729Z,5.13
2018-09-29T00:17:58.541Z,4.70
2018-09-29T00:20:27.254Z,5.33
2018-09-29T00:22:56.185Z,4.83
2018-09-29T00:25:25.017Z,4.73
2018-09-29T00:27:53.887Z,4.70
2018-09-29T00:30:22.971Z,5.27
2018-09-29T00:32:51.903Z,4.73
2018-09-29T00:35:20.763Z,5.17
2018-09-29T00:37:49.822Z,4.70
2018-09-29T00:40:18.663Z,4.77
2018-09-29T00:42:47.462Z,5.40
2018-09-29T00:45:16.475Z,5.20
2018-09-29T00:47:45.098Z,4.90
2018-09-29T00:50:13.824Z,4.67
2018-09-29T00:52:42.955Z,5.17
2018-09-29T00:55:12.036Z,4.50
2018-09-29T00:57:40.984Z,4.17
2018-09-29T01:00:09.979Z,4.40
2018-09-29T01:02:38.871Z,3.97
2018-09-29T01:05:07.627Z,4.13
2018-09-29T01:07:36.654Z,3.60
2018-09-29T01:10:05.786Z,3.93
2018-09-29T01:12:34.583Z,3.97
2018-09-29T01:15:03.399Z,3.90
2018-09-29T01:17:32.098Z,3.50
2018-09-29T01:20:00.731Z,3.33
2018-09-29T01:22:29.448Z,4.00
2018-09-29T01:24:58.390Z,3.60
2018-09-29T01:27:27.483Z,3.13
2018-09-29T01:29:56.472Z,4.23
2018-09-29T01:32:25.396Z,3.77
2018-09-29T01:34:54.160Z,3.87
2018-09-29T01:37:23.388Z,5.10
2018-09-29T01:39:52.517Z,3.90
2018-09-29T01:42:21.364Z,3.70
2018-09-29T01:44:50.082Z,3.70
2018-09-29T01:47:18.846Z,4.40
2018-09-29T01:49:47.554Z,4.10
2018-09-29T01:52:16.463Z,4.20
2018-09-29T01:54:45.323Z,4.73
2018-09-29T01:57:14.306Z,3.37
2018-09-29T01:59:43.155Z,4.40
2018-09-29T02:02:11.923Z,4.30
2018-09-29T02:04:40.793Z,4.60
2018-09-29T02:07:09.954Z,4.13
2018-09-29T02:09:38.819Z,4.17
2018-09-29T02:12:07.883Z,4.60
2018-09-29T02:14:36.869Z,4.87
2018-09-29T02:17:05.750Z,3.77
2018-09-29T02:19:34.512Z,4.87
2018-09-29T02:22:03.695Z,4.80
2018-09-29T02:24:32.635Z,4.80
2018-09-29T02:27:01.479Z,5.53
2018-09-29T02:29:30.310Z,5.20
2018-09-29T02:31:59.370Z,4.67
2018-09-29T02:34:28.400Z,4.40
2018-09-29T02:36:57.097Z,4.40
2018-09-29T02:39:25.891Z,4.47
2018-09-29T02:41:54.859Z,4.50
2018-09-29T02:44:23.720Z,4.73
2018-09-29T02:46:52.347Z,5.10
2018-09-29T02:49:20.969Z,4.77
2018-09-29T02:51:49.962Z,4.53
2018-09-29T02:54:18.928Z,5.13
2018-09-29T02:56:47.819Z,4.63
2018-09-29T02:59:16.843Z,5.57
2018-09-29T03:01:45.916Z,4.87
2018-09-29T03:04:14.876Z,5.17
2018-09-29T03:06:43.849Z,4.17
2018-09-29T03:09:12.735Z,5.13
2018-09-29T03:11:41.879Z,5.07
2018-09-29T03:14:10.787Z,4.80
2018-09-29T03:16:39.592Z,5.03
2018-09-29T03:19:08.278Z,4.90
2018-09-29T03:21:37.105Z,4.50
2018-09-29T03:24:06.100Z,4.63
2018-09-29T03:26:35.225Z,6.07
2018-09-29T03:29:04.175Z,6.57
2018-09-29T03:31:32.931Z,6.03
2018-09-29T03:34:01.703Z,5.77
2018-09-29T03:36:30.566Z,6.27
2018-09-29T03:38:59.231Z,5.77
2018-09-29T03:41:28.124Z,6.40
2018-09-29T03:43:56.876Z,6.27
2018-09-29T03:46:25.845Z,7.13
2018-09-29T03:48:54.498Z,6.77
2018-09-29T03:51:23.294Z,8.40
2018-09-29T03:53:52.499Z,7.47
2018-09-29T03:56:21.280Z,7.57
2018-09-29T03:58:50.254Z,6.30
2018-09-29T04:01:19.360Z,6.60
2018-09-29T04:03:48.179Z,7.20
2018-09-29T04:06:17.227Z,6.90
2018-09-29T04:08:46.330Z,7.30
2018-09-29T04:11:15.215Z,7.17
2018-09-29T04:13:44.099Z,6.47
2018-09-29T04:16:13.138Z,7.50
2018-09-29T04:18:41.727Z,7.17
2018-09-29T04:21:10.793Z,7.93
2018-09-29T04:23:39.713Z,7.17
2018-09-29T04:26:08.543Z,5.80
2018-09-29T04:28:37.481Z,5.97
2018-09-29T04:31:06.596Z,5.93
2018-09-29T04:33:35.406Z,7.30
2018-09-29T04:36:04.287Z,7.40
2018-09-29T04:38:33.104Z,7.43
2018-09-29T04:41:01.884Z,6.83
2018-09-29T04:43:30.674Z,6.07
2018-09-29T04:45:59.904Z,6.63
2018-09-29T04:48:28.504Z,7.07
2018-09-29T04:50:57.287Z,7.43
2018-09-29T04:53:27.154Z,7.47
2018-09-29T04:55:56.105Z,7.27
2018-09-29T04:58:24.819Z,6.67
2018-09-29T05:00:53.725Z,6.87
2018-09-29T05:03:22.781Z,8.07
2018-09-29T05:05:51.682Z,7.80
2018-09-29T05:08:21.024Z,6.67
2018-09-29T05:10:49.975Z,7.20
2018-09-29T05:13:18.815Z,8.83
2018-09-29T05:15:47.675Z,11.27
2018-09-29T05:18:16.464Z,10.03
2018-09-29T05:20:45.540Z,10.23
2018-09-29T05:23:14.530Z,9.33
2018-09-29T05:25:43.336Z,8.40
2018-09-29T05:28:12.100Z,8.70
2018-09-29T05:30:41.344Z,9.47
2018-09-29T05:33:10.367Z,8.90
2018-09-29T05:35:39.345Z,8.17
2018-09-29T05:38:08.915Z,7.40
2018-09-29T05:40:37.906Z,7.90
2018-09-29T05:43:06.772Z,7.63
2018-09-29T05:45:35.535Z,8.07
2018-09-29T05:48:04.555Z,8.40
2018-09-29T05:50:33.509Z,7.90
2018-09-29T05:53:02.797Z,7.87
2018-09-29T05:55:31.782Z,7.60
2018-09-29T05:58:00.684Z,7.57
2018-09-29T06:00:29.654Z,7.30
2018-09-29T06:02:59.431Z,6.23
2018-09-29T06:05:28.650Z,7.77
2018-09-29T06:07:57.277Z,6.80
2018-09-29T06:10:26.352Z,7.97
2018-09-29T06:12:56.010Z,6.50
2018-09-29T06:15:24.818Z,7.00
2018-09-29T06:17:53.426Z,7.07
2018-09-29T06:20:22.170Z,6.03
2018-09-29T06:22:51.092Z,7.27
2018-09-29T06:25:20.098Z,6.67
2018-09-29T06:27:48.999Z,6.57
2018-09-29T06:30:17.886Z,6.43
2018-09-29T06:32:47.203Z,6.87
2018-09-29T06:35:15.878Z,6.40
2018-09-29T06:37:44.950Z,6.40
2018-09-29T06:40:13.868Z,6.30
2018-09-29T06:42:42.472Z,6.93
2018-09-29T06:45:11.175Z,6.83
2018-09-29T06:47:40.167Z,7.37
2018-09-29T06:50:09.304Z,7.07
2018-09-29T06:52:38.311Z,8.57
2018-09-29T06:55:07.227Z,7.90
2018-09-29T06:57:36.294Z,6.97
2018-09-29T07:00:05.331Z,7.83
2018-09-29T07:02:34.427Z,7.20
2018-09-29T07:05:03.471Z,7.43
2018-09-29T07:07:32.576Z,8.27
2018-09-29T07:10:01.667Z,7.73
2018-09-29T07:12:30.529Z,7.63
2018-09-29T07:14:59.464Z,8.03
2018-09-29T07:17:28.769Z,7.03
2018-09-29T07:19:57.658Z,8.50
2018-09-29T07:22:26.550Z,7.97
2018-09-29T07:24:55.655Z,8.07
2018-09-29T07:27:24.434Z,7.43
2018-09-29T07:29:53.535Z,7.67
2018-09-29T07:32:22.862Z,7.90
2018-09-29T07:34:51.839Z,7.17
2018-09-29T07:37:20.587Z,7.40
2018-09-29T07:39:49.940Z,8.77
2018-09-29T07:42:18.578Z,7.87
2018-09-29T07:44:47.664Z,8.47
2018-09-29T07:47:16.693Z,8.50
2018-09-29T07:49:45.427Z,10.13
2018-09-29T07:52:14.054Z,8.60
2018-09-29T07:54:43.505Z,8.13
2018-09-29T07:57:12.798Z,8.17
2018-09-29T07:59:42.511Z,8.53
2018-09-29T08:02:11.369Z,8.90
2018-09-29T08:04:41.230Z,9.43
2018-09-29T08:07:10.307Z,7.93
2018-09-29T08:09:39.020Z,8.50
2018-09-29T08:12:07.794Z,10.03
2018-09-29T08:14:37.043Z,10.17
2018-09-29T08:17:05.844Z,9.83
2018-09-29T08:19:34.545Z,9.13
2018-09-29T08:22:03.525Z,9.00
2018-09-29T08:24:32.601Z,8.70
2018-09-29T08:27:01.823Z,8.37
2018-09-29T08:29:30.950Z,8.80
2018-09-29T08:31:59.803Z,9.07
2018-09-29T08:34:28.600Z,8.90
2018-09-29T08:36:57.415Z,10.13
2018-09-29T08:39:26.219Z,9.97
2018-09-29T08:41:55.027Z,10.60
2018-09-29T08:44:23.787Z,10.53
2018-09-29T08:46:52.788Z,11.57
2018-09-29T08:49:21.371Z,10.27
2018-09-29T08:51:50.311Z,11.30
2018-09-29T08:54:19.378Z,10.80
2018-09-29T08:56:48.320Z,9.33
2018-09-29T08:59:17.371Z,9.50
2018-09-29T09:01:46.432Z,9.23
2018-09-29T09:04:15.180Z,10.07
2018-09-29T09:06:44.039Z,9.97
2018-09-29T09:09:12.685Z,9.83
2018-09-29T09:11:41.298Z,9.90
2018-09-29T09:14:10.182Z,11.00
2018-09-29T09:16:39.041Z,9.67
2018-09-29T09:19:07.932Z,9.03
2018-09-29T09:21:36.578Z,7.20
2018-09-29T09:24:05.626Z,7.37
2018-09-29T09:26:34.432Z,7.53
2018-09-29T09:29:03.332Z,6.50
2018-09-29T09:31:32.145Z,5.27
2018-09-29T09:34:01.138Z,5.70
2018-09-29T09:36:29.826Z,5.80
2018-09-29T09:38:58.670Z,5.73
2018-09-29T09:41:27.440Z,6.10
2018-09-29T09:43:56.388Z,6.33
2018-09-29T09:46:25.603Z,5.67
2018-09-29T09:48:54.344Z,5.10
2018-09-29T09:51:23.292Z,5.97
2018-09-29T09:53:52.294Z,6.17
2018-09-29T09:56:21.287Z,6.10
2018-09-29T09:58:50.076Z,5.23
2018-09-29T10:01:24.142Z,5.00
2018-09-29T10:03:53.118Z,5.63
2018-09-29T10:06:21.769Z,4.87
2018-09-29T10:08:50.541Z,4.60
2018-09-29T10:11:19.282Z,4.53
2018-09-29T10:13:48.324Z,4.37
2018-09-29T10:16:17.595Z,3.80
2018-09-29T10:18:46.619Z,4.17
2018-09-29T10:21:15.519Z,4.17
2018-09-29T10:23:44.274Z,3.87
2018-09-29T10:26:13.234Z,3.70
2018-09-29T10:28:42.309Z,4.63
2018-09-29T10:31:11.308Z,4.80
2018-09-29T10:33:39.972Z,5.03
2018-09-29T10:36:08.761Z,4.67
2018-09-29T10:38:37.994Z,5.00
2018-09-29T10:41:06.812Z,5.07
2018-09-29T10:43:35.639Z,4.23
2018-09-29T10:46:04.762Z,4.22
2018-09-29T10:48:33.567Z,4.83
2018-09-29T10:51:02.631Z,4.37
2018-09-29T10:53:31.969Z,4.00
2018-09-29T10:56:00.842Z,3.70
2018-09-29T10:58:29.975Z,4.25
2018-09-29T11:00:58.782Z,4.08
2018-09-29T11:03:27.570Z,5.00
2018-09-29T11:05:56.474Z,4.67
2018-09-29T11:08:25.223Z,5.10
2018-09-29T11:10:54.070Z,4.37
2018-09-29T11:13:23.194Z,4.60
2018-09-29T11:15:52.354Z,5.40
2018-09-29T11:18:21.268Z,5.53
2018-09-29T11:20:50.088Z,4.90
2018-09-29T11:23:18.930Z,5.25
2018-09-29T11:25:48.094Z,4.97
2018-09-29T11:28:16.868Z,3.77
2018-09-29T11:30:45.530Z,4.37
2018-09-29T11:33:14.476Z,5.30
2018-09-29T11:35:43.157Z,4.97
2018-09-29T11:38:11.872Z,5.62
2018-09-29T11:40:40.956Z,5.17
2018-09-29T11:43:09.928Z,4.08
2018-09-29T11:45:39.242Z,5.33
2018-09-29T11:48:08.020Z,4.97
2018-09-29T11:50:36.802Z,4.75
2018-09-29T11:53:05.455Z,4.17
2018-09-29T11:55:35.394Z,4.58
2018-09-29T11:58:04.183Z,3.85
2018-09-29T12:00:33.198Z,3.60
2018-09-29T12:03:01.943Z,5.35
2018-09-29T12:05:30.640Z,4.37
2018-09-29T12:07:59.437Z,4.37
2018-09-29T12:10:28.240Z,3.80
2018-09-29T12:12:57.443Z,4.10
2018-09-29T12:15:26.121Z,4.65
2018-09-29T12:17:55.291Z,3.87
2018-09-29T12:20:24.195Z,4.25
2018-09-29T12:22:53.212Z,4.35
2018-09-29T12:25:22.199Z,3.85
2018-09-29T12:27:51.131Z,4.35
2018-09-29T12:30:20.078Z,4.35
2018-09-29T12:32:48.699Z,4.45
2018-09-29T12:35:17.366Z,4.10
2018-09-29T12:37:46.044Z,4.60
2018-09-29T12:40:15.182Z,4.42
2018-09-29T12:42:44.207Z,3.90
2018-09-29T12:45:12.916Z,4.25
2018-09-29T12:47:42.171Z,4.30
2018-09-29T12:50:11.157Z,4.17
2018-09-29T12:52:39.905Z,4.55
2018-09-29T12:55:08.763Z,3.87
2018-09-29T12:57:37.698Z,4.08
2018-09-29T13:00:07.523Z,5.30
2018-09-29T13:02:36.108Z,4.30
2018-09-29T13:05:05.034Z,4.35
2018-09-29T13:07:34.085Z,4.78
2018-09-29T13:10:02.800Z,4.12
2018-09-29T13:12:31.555Z,3.77
2018-09-29T13:15:00.554Z,3.77
2018-09-29T13:17:29.445Z,3.37
2018-09-29T13:19:58.370Z,3.77
2018-09-29T13:22:27.114Z,3.52
2018-09-29T13:24:55.808Z,3.25
2018-09-29T13:27:24.931Z,2.95
2018-09-29T13:29:53.615Z,3.37
2018-09-29T13:32:22.341Z,3.10
2018-09-29T13:34:51.073Z,3.65
2018-09-29T13:37:19.759Z,3.10
2018-09-29T13:39:48.919Z,3.20
2018-09-29T13:42:17.977Z,3.47
2018-09-29T13:44:47.000Z,3.92
2018-09-29T13:47:16.034Z,3.40
2018-09-29T13:49:44.713Z,3.52
2018-09-29T13:52:13.924Z,3.30
2018-09-29T13:54:42.927Z,3.45
2018-09-29T13:57:11.801Z,3.22
2018-09-29T13:59:40.486Z,3.05
2018-09-29T14:02:09.220Z,3.30
2018-09-29T14:04:37.966Z,3.33
2018-09-29T14:07:06.756Z,3.15
2018-09-29T14:09:35.590Z,2.37
2018-09-29T14:12:04.940Z,2.65
2018-09-29T14:14:33.902Z,2.60
2018-09-29T14:17:02.983Z,2.90
2018-09-29T14:19:31.899Z,2.60
2018-09-29T14:22:00.970Z,3.67
2018-09-29T14:24:30.043Z,3.30
2018-09-29T14:26:59.072Z,4.55
2018-09-29T14:29:27.815Z,4.17
2018-09-29T14:31:56.552Z,3.47
2018-09-29T14:34:25.229Z,4.12
2018-09-29T14:36:54.023Z,4.40
2018-09-29T14:39:23.376Z,5.05
2018-09-29T14:41:52.256Z,4.90
2018-09-29T14:44:21.267Z,4.33
2018-09-29T14:46:50.172Z,4.92
2018-09-29T14:49:19.154Z,4.97
2018-09-29T14:51:48.218Z,5.22
2018-09-29T14:54:16.823Z,6.35
2018-09-29T14:56:45.862Z,8.43
2018-09-29T14:59:14.719Z,5.87
2018-09-29T15:01:43.527Z,4.58
2018-09-29T15:04:12.456Z,4.25
2018-09-29T15:06:41.378Z,4.33
2018-09-29T15:09:11.775Z,4.53
2018-09-29T15:11:40.867Z,5.30
2018-09-29T15:14:10.424Z,4.08
2018-09-29T15:16:39.523Z,4.62
2018-09-29T15:19:08.315Z,5.40
2018-09-29T15:21:37.138Z,4.58
2018-09-29T15:24:06.139Z,5.03
2018-09-29T15:26:34.886Z,4.78
2018-09-29T15:29:03.724Z,6.33
2018-09-29T15:31:32.477Z,5.25
2018-09-29T15:34:01.060Z,4.80
2018-09-29T15:36:29.822Z,4.20
2018-09-29T15:38:58.430Z,4.22
2018-09-29T15:41:27.190Z,4.67
2018-09-29T15:43:56.202Z,5.45
2018-09-29T15:46:25.097Z,4.90
2018-09-29T15:48:53.988Z,4.25
2018-09-29T15:51:22.880Z,4.75
2018-09-29T15:53:51.903Z,5.92
2018-09-29T15:56:20.843Z,7.53
2018-09-29T15:58:49.603Z,7.67
2018-09-29T16:01:18.302Z,7.43
2018-09-29T16:03:47.289Z,8.30
2018-09-29T16:06:16.166Z,7.90
2018-09-29T16:08:45.283Z,7.70
2018-09-29T16:11:14.108Z,7.90
2018-09-29T16:13:42.777Z,7.43
2018-09-29T16:16:11.786Z,8.17
2018-09-29T16:18:40.505Z,7.90
2018-09-29T16:21:09.275Z,7.40
2018-09-29T16:23:38.265Z,8.00
2018-09-29T16:26:07.190Z,8.77
2018-09-29T16:28:35.883Z,7.77
2018-09-29T16:31:04.658Z,8.93
2018-09-29T16:33:33.542Z,9.20
2018-09-29T16:36:02.620Z,8.53
2018-09-29T16:38:31.432Z,8.33
2018-09-29T16:41:00.481Z,8.00
2018-09-29T16:43:29.450Z,8.87
2018-09-29T16:45:58.547Z,8.97
2018-09-29T16:48:27.383Z,9.83
2018-09-29T16:50:56.208Z,9.23
2018-09-29T16:53:25.314Z,10.37
2018-09-29T16:55:54.159Z,8.20
2018-09-29T16:58:22.958Z,9.40
2018-09-29T17:00:51.819Z,10.10
2018-09-29T17:03:20.748Z,10.43
2018-09-29T17:05:49.760Z,9.93
2018-09-29T17:08:18.698Z,9.83
2018-09-29T17:10:47.555Z,8.60
2018-09-29T17:13:16.188Z,8.87
2018-09-29T17:15:45.155Z,8.80
2018-09-29T17:18:13.876Z,9.20
2018-09-29T17:20:42.675Z,9.90
2018-09-29T17:23:11.556Z,9.27
2018-09-29T17:25:40.237Z,8.23
2018-09-29T17:28:08.810Z,8.67
2018-09-29T17:30:37.551Z,8.67
2018-09-29T17:33:06.475Z,10.03
2018-09-29T17:35:35.450Z,8.57
2018-09-29T17:38:04.533Z,9.60
2018-09-29T17:40:33.381Z,8.80
2018-09-29T17:43:02.502Z,8.00
2018-09-29T17:45:31.236Z,9.00
2018-09-29T17:48:00.186Z,8.93
2018-09-29T17:50:29.115Z,7.97
2018-09-29T17:52:57.908Z,8.47
2018-09-29T17:55:26.662Z,8.70
2018-09-29T17:57:55.378Z,7.97
2018-09-29T18:00:24.779Z,7.70
2018-09-29T18:02:53.979Z,7.27
2018-09-29T18:05:23.085Z,7.50
2018-09-29T18:07:52.058Z,8.73
2018-09-29T18:10:20.842Z,8.93
2018-09-29T18:12:49.598Z,8.10
2018-09-29T18:15:18.423Z,8.37
2018-09-29T18:17:47.384Z,9.17
2018-09-29T18:20:16.218Z,12.00
2018-09-29T18:22:45.331Z,10.57
2018-09-29T18:25:14.426Z,10.07
2018-09-29T18:27:43.176Z,9.00
2018-09-29T18:30:11.986Z,9.27
2018-09-29T18:32:40.936Z,10.27
2018-09-29T18:35:09.714Z,9.30
2018-09-29T18:37:38.583Z,9.30
2018-09-29T18:40:07.612Z,9.43
2018-09-29T18:42:36.466Z,10.10
2018-09-29T18:45:05.389Z,9.20
2018-09-29T18:47:34.188Z,9.27
2018-09-29T18:50:03.515Z,10.33
2018-09-29T18:52:32.571Z,9.57
2018-09-29T18:55:01.538Z,9.27
2018-09-29T18:57:30.469Z,10.20
2018-09-29T18:59:59.173Z,10.20
2018-09-29T19:02:28.479Z,11.13
2018-09-29T19:04:57.633Z,11.10
2018-09-29T19:07:26.575Z,11.27
2018-09-29T19:09:55.844Z,11.37
2018-09-29T19:12:24.622Z,11.77
2018-09-29T19:14:53.528Z,12.30
2018-09-29T19:17:22.272Z,11.50
2018-09-29T19:19:51.001Z,11.33
2018-09-29T19:22:20.020Z,11.50
2018-09-29T19:24:48.823Z,11.90
2018-09-29T19:27:17.490Z,12.43
2018-09-29T19:29:46.503Z,14.30
2018-09-29T19:32:15.742Z,13.00
2018-09-29T19:34:44.499Z,12.50
2018-09-29T19:37:13.319Z,13.10
2018-09-29T19:39:42.101Z,13.50
2018-09-29T19:42:10.853Z,14.87
2018-09-29T19:44:39.606Z,14.43
2018-09-29T19:47:08.546Z,14.43
2018-09-29T19:49:37.139Z,17.07
2018-09-29T19:52:06.393Z,14.63
2018-09-29T19:54:35.120Z,15.53
2018-09-29T19:57:03.961Z,14.20
2018-09-29T19:59:32.653Z,14.20
2018-09-29T20:02:01.535Z,14.37
2018-09-29T20:04:30.409Z,15.17
2018-09-29T20:06:59.443Z,15.00
2018-09-29T20:09:28.515Z,15.10
2018-09-29T20:11:57.752Z,15.37
2018-09-29T20:14:26.840Z,15.03
2018-09-29T20:16:56.031Z,16.27
2018-09-29T20:19:25.028Z,14.37
2018-09-29T20:21:54.116Z,16.43
2018-09-29T20:24:22.873Z,15.43
2018-09-29T20:26:51.741Z,15.70
2018-09-29T20:29:20.531Z,16.63
2018-09-29T20:31:49.472Z,16.83
2018-09-29T20:34:18.571Z,18.93
2018-09-29T20:36:47.292Z,17.87
2018-09-29T20:39:16.302Z,18.80
2018-09-29T20:41:45.244Z,16.63
2018-09-29T20:44:13.903Z,17.37
2018-09-29T20:46:42.979Z,16.80
2018-09-29T20:49:11.862Z,15.60
2018-09-29T20:51:40.795Z,15.57
2018-09-29T20:54:09.630Z,15.17
2018-09-29T20:56:38.345Z,16.97
2018-09-29T20:59:07.062Z,17.40
2018-09-29T21:01:35.889Z,16.53
2018-09-29T21:04:04.795Z,17.67
2018-09-29T21:06:34.023Z,16.60
2018-09-29T21:09:03.194Z,15.83
2018-09-29T21:11:32.129Z,17.60
2018-09-29T21:14:00.945Z,15.47
2018-09-29T21:16:29.894Z,16.60
2018-09-29T21:18:58.809Z,17.37
2018-09-29T21:21:27.952Z,16.43
2018-09-29T21:23:56.751Z,16.03
2018-09-29T21:26:25.502Z,15.47
2018-09-29T21:28:54.379Z,15.70
2018-09-29T21:31:23.453Z,16.63
2018-09-29T21:33:52.514Z,16.83
2018-09-29T21:36:21.375Z,16.20
2018-09-29T21:38:50.411Z,16.30
2018-09-29T21:41:19.154Z,16.80
2018-09-29T21:43:47.950Z,17.20
2018-09-29T21:46:17.022Z,18.13
2018-09-29T21:48:45.886Z,16.13
2018-09-29T21:51:14.638Z,15.87
2018-09-29T21:53:43.361Z,17.03
2018-09-29T21:56:12.126Z,18.40
2018-09-29T21:58:41.306Z,17.80
2018-09-29T22:01:15.026Z,16.47
2018-09-29T22:03:43.884Z,16.63
2018-09-29T22:06:12.690Z,17.37
2018-09-29T22:08:41.558Z,17.53
2018-09-29T22:11:10.370Z,17.87
2018-09-29T22:13:39.251Z,17.50
2018-09-29T22:16:08.182Z,17.50
2018-09-29T22:18:37.107Z,18.07
2018-09-29T22:21:05.921Z,17.80
2018-09-29T22:23:34.533Z,18.13
2018-09-29T22:26:03.216Z,19.50
2018-09-29T22:28:32.294Z,17.70
2018-09-29T22:31:01.150Z,18.97
2018-09-29T22:33:30.020Z,18.57
2018-09-29T22:35:58.766Z,18.67
2018-09-29T22:38:27.864Z,18.13
2018-09-29T22:40:56.646Z,18.60
2018-09-29T22:43:25.444Z,19.47
2018-09-29T22:45:54.691Z,19.27
2018-09-29T22:48:23.515Z,18.77
2018-09-29T22:50:52.390Z,17.57
2018-09-29T22:53:21.115Z,19.80
2018-09-29T22:55:49.938Z,19.50
2018-09-29T22:58:19.106Z,19.57
2018-09-29T23:00:48.016Z,17.80
2018-09-29T23:03:16.800Z,19.63
2018-09-29T23:05:45.795Z,17.60
2018-09-29T23:08:14.540Z,17.93
2018-09-29T23:10:43.152Z,19.30
2018-09-29T23:13:12.333Z,18.30
2018-09-29T23:15:41.336Z,18.53
2018-09-29T23:18:10.428Z,18.83
2018-09-29T23:20:39.095Z,19.67
2018-09-29T23:23:07.820Z,19.60
2018-09-29T23:25:36.497Z,19.83
2018-09-29T23:28:05.528Z,20.63
2018-09-29T23:30:34.533Z,20.13
2018-09-29T23:33:03.302Z,19.27
2018-09-29T23:35:32.230Z,18.27
2018-09-29T23:38:01.087Z,19.77
2018-09-29T23:40:30.258Z,20.23
2018-09-29T23:42:59.322Z,19.53
2018-09-29T23:45:28.083Z,19.27
2018-09-29T23:47:56.897Z,21.00
2018-09-29T23:50:25.739Z,19.37
2018-09-29T23:52:54.495Z,20.07
2018-09-29T23:55:23.270Z,19.20
2018-09-29T23:57:52.222Z,20.03
